Time;durP1;ratioP1;P1;durP2;ratioP2;P2;SDS_P1;SDS_P2;PMS_P1;PMS_P2;Temp;Humidity;BMP_temperature;BMP_pressure;BME280_temperature;BME280_humidity;BME280_pressure;Samples;Min_cycle;Max_cycle;Signal;HPM_P1;HPM_P2
2021/04/12 00:02:01;;;;;;;8.55;6.70;;;;;;;5.24;70.60;99304.47;3576264;40;20052;-66
2021/04/12 00:04:35;;;;;;;7.88;6.22;;;;;;;5.20;70.53;99304.75;3574960;40;20439;-65
2021/04/12 00:07:09;;;;;;;9.45;6.93;;;;;;;5.12;70.56;99307.28;3573174;40;20061;-66
2021/04/12 00:09:42;;;;;;;8.73;6.47;;;;;;;5.10;70.62;99308.38;3572634;40;20049;-66
2021/04/12 00:12:15;;;;;;;11.10;7.40;;;;;;;5.11;70.95;99310.88;3581604;40;20049;-66
2021/04/12 00:14:47;;;;;;;11.50;7.95;;;;;;;5.06;70.75;99293.91;3583628;40;20056;-67
2021/04/12 00:17:18;;;;;;;12.18;8.27;;;;;;;4.97;70.73;99296.44;3576047;40;20049;-67
2021/04/12 00:19:51;;;;;;;11.77;9.57;;;;;;;4.92;71.18;99298.66;3577361;40;20201;-67
2021/04/12 00:22:25;;;;;;;9.55;8.25;;;;;;;4.96;71.29;99293.97;3576570;40;20041;-67
2021/04/12 00:24:57;;;;;;;12.18;9.32;;;;;;;4.93;71.42;99300.31;3575757;40;20119;-67
2021/04/12 00:27:30;;;;;;;12.25;9.18;;;;;;;4.96;71.26;99294.78;3577353;40;20108;-67
2021/04/12 00:30:03;;;;;;;11.32;9.40;;;;;;;4.99;71.16;99303.34;3577560;40;20049;-67
2021/04/12 00:32:35;;;;;;;12.18;9.70;;;;;;;4.99;71.35;99300.72;3576548;40;20052;-67
2021/04/12 00:35:08;;;;;;;13.45;10.52;;;;;;;5.00;71.08;99302.38;3576922;40;20057;-67
2021/04/12 00:37:40;;;;;;;15.77;11.77;;;;;;;4.88;71.25;99310.41;3575546;40;20037;-67
2021/04/12 00:40:15;;;;;;;14.38;11.00;;;;;;;4.89;71.34;99319.91;3574942;40;20041;-67
2021/04/12 00:43:00;;;;;;;16.10;11.23;;;;;;;4.86;71.46;99320.22;3575841;40;20053;-67
2021/04/12 00:45:47;;;;;;;13.80;11.30;;;;;;;4.71;71.64;99330.31;3576042;40;20053;-67
2021/04/12 00:48:44;;;;;;;18.05;11.82;;;;;;;4.73;71.82;99335.41;3575219;40;20045;-67
2021/04/12 00:51:26;;;;;;;15.63;12.30;;;;;;;4.80;71.96;99348.75;3575822;40;20060;-67
2021/04/12 00:54:11;;;;;;;16.42;13.02;;;;;;;4.78;71.87;99345.47;3576101;40;20127;-67
2021/04/12 00:56:44;;;;;;;17.75;13.45;;;;;;;4.78;72.10;99346.28;3575652;40;20082;-67
2021/04/12 00:59:33;;;;;;;17.60;13.40;;;;;;;4.85;71.93;99344.72;3574449;40;20073;-67
2021/04/12 01:02:13;;;;;;;17.20;13.27;;;;;;;4.94;71.83;99335.22;3570287;40;20045;-67
2021/04/12 01:04:51;;;;;;;17.70;13.75;;;;;;;4.91;71.52;99336.31;3569795;40;20061;-67
2021/04/12 01:07:49;;;;;;;17.25;13.25;;;;;;;4.92;71.64;99331.91;3569836;40;20045;-67
2021/04/12 01:10:31;;;;;;;19.52;14.80;;;;;;;4.90;71.73;99337.28;3557961;40;20056;-67
2021/04/12 01:13:33;;;;;;;18.90;14.75;;;;;;;4.88;71.87;99330.53;3570263;40;20047;-67
2021/04/12 01:16:20;;;;;;;21.38;14.95;;;;;;;4.93;71.80;99330.94;3570833;40;20034;-67
2021/04/12 01:18:58;;;;;;;19.58;15.15;;;;;;;4.97;71.21;99338.34;3571634;40;20064;-67
2021/04/12 01:21:55;;;;;;;21.13;14.85;;;;;;;5.09;71.17;99348.66;3571281;40;20057;-66
2021/04/12 01:25:07;;;;;;;21.83;15.85;;;;;;;4.95;71.29;99365.69;3570597;40;20049;-66
2021/04/12 01:28:22;;;;;;;20.77;15.30;;;;;;;4.90;71.30;99383.63;3570630;40;20419;-66
2021/04/12 01:31:16;;;;;;;;;;;;;;;4.77;71.56;99381.28;3570947;40;20431;-66
2021/04/12 01:34:09;;;;;;;19.92;14.95;;;;;;;4.75;71.87;99377.19;3570326;40;19950;-66
2021/04/12 01:36:44;;;;;;;23.95;17.38;;;;;;;4.69;72.03;99378.56;3570411;40;20135;-66
2021/04/12 01:39:32;;;;;;;24.02;17.55;;;;;;;4.66;72.32;99374.44;3569117;40;20340;-66
2021/04/12 01:42:02;;;;;;;23.23;18.02;;;;;;;4.58;72.53;99378.72;3569487;40;20045;-66
2021/04/12 01:44:39;;;;;;;21.13;15.70;;;;;;;4.64;72.54;99373.75;3570336;40;20049;-66
2021/04/12 01:47:17;;;;;;;24.40;16.98;;;;;;;4.73;72.43;99372.06;3569036;40;20348;-66
2021/04/12 01:50:02;;;;;;;21.30;16.60;;;;;;;4.73;72.34;99379.91;3570521;40;20150;-66
2021/04/12 01:52:46;;;;;;;23.50;16.70;;;;;;;4.72;72.54;99378.28;3570776;40;20045;-66
2021/04/12 01:55:37;;;;;;;;;;;;;;;4.75;72.31;99385.84;3570011;40;20081;-66
2021/04/12 01:58:33;;;;;;;22.38;15.80;;;;;;;4.68;72.61;99392.63;3564969;40;19941;-65
2021/04/12 02:01:16;;;;;;;20.33;15.15;;;;;;;4.78;72.55;99390.81;3570115;40;20049;-67
2021/04/12 02:03:59;;;;;;;20.20;14.82;;;;;;;4.86;72.73;99398.81;3570103;40;20041;-66
2021/04/12 02:06:46;;;;;;;21.67;16.17;;;;;;;4.90;72.66;99404.59;3569907;40;20041;-66
2021/04/12 02:09:39;;;;;;;22.27;16.42;;;;;;;4.82;72.55;99407.09;3570518;40;20049;-67
2021/04/12 02:12:19;;;;;;;21.45;15.98;;;;;;;4.84;72.67;99405.13;3569066;40;20053;-67
2021/04/12 02:14:57;;;;;;;22.48;16.10;;;;;;;4.87;72.42;99405.69;3569961;40;20046;-67
2021/04/12 02:17:39;;;;;;;20.33;15.88;;;;;;;4.93;72.53;99415.59;3570121;40;20034;-68
2021/04/12 02:20:13;;;;;;;20.90;15.60;;;;;;;4.80;72.49;99403.78;3570285;40;20061;-67
2021/04/12 02:22:55;;;;;;;22.38;16.65;;;;;;;4.75;72.56;99425.16;3570484;40;20056;-67
2021/04/12 02:25:36;;;;;;;25.58;16.83;;;;;;;4.63;72.82;99419.22;3570025;40;20079;-67
2021/04/12 02:28:17;;;;;;;24.35;16.60;;;;;;;4.49;73.29;99430.16;3570425;40;20049;-66
2021/04/12 02:30:51;;;;;;;22.15;16.60;;;;;;;4.45;73.46;99426.16;3570281;40;20053;-66
2021/04/12 02:33:25;;;;;;;22.27;16.38;;;;;;;4.50;73.54;99438.81;3568793;40;20044;-67
2021/04/12 02:36:02;;;;;;;24.48;16.65;;;;;;;4.48;73.57;99426.66;3569873;40;20045;-67
2021/04/12 02:38:39;;;;;;;22.65;16.60;;;;;;;4.51;73.82;99427.38;3571231;40;20049;-67
2021/04/12 02:41:24;;;;;;;22.33;16.35;;;;;;;4.54;73.45;99433.16;3570708;40;20089;-67
2021/04/12 02:44:02;;;;;;;;;;;;;;;4.56;73.42;99428.59;3572291;40;20053;-66
2021/04/12 02:46:53;;;;;;;19.73;14.40;;;;;;;4.54;73.11;99430.56;3571473;40;20200;-66
2021/04/12 02:49:31;;;;;;;20.40;15.25;;;;;;;4.50;73.31;99444.06;3571494;40;20334;-66
2021/04/12 02:52:10;;;;;;;19.08;14.60;;;;;;;4.49;72.95;99443.25;3572010;40;20045;-66
2021/04/12 02:54:59;;;;;;;20.40;14.45;;;;;;;4.56;73.00;99425.16;3570943;40;20049;-66
2021/04/12 02:58:01;;;;;;;21.88;14.68;;;;;;;4.51;72.81;99430.81;3570316;40;20060;-66
2021/04/12 03:00:38;;;;;;;19.50;14.48;;;;;;;4.51;72.69;99443.91;3559989;40;20103;-66
2021/04/12 03:03:25;;;;;;;22.30;15.43;;;;;;;4.50;72.49;99441.44;3571752;40;20045;-66
2021/04/12 03:06:34;;;;;;;19.38;15.35;;;;;;;4.51;72.02;99443.91;3576636;40;20052;-66
2021/04/12 03:09:30;;;;;;;17.67;13.73;;;;;;;4.58;72.23;99465.97;3571169;40;20037;-66
2021/04/12 03:12:22;;;;;;;20.67;14.85;;;;;;;4.59;72.14;99462.38;3578719;40;20497;-66
2021/04/12 03:15:19;;;;;;;22.20;13.52;;;;;;;4.53;71.94;99467.31;3571961;40;20053;-66
2021/04/12 03:18:15;;;;;;;18.85;13.77;;;;;;;4.48;71.97;99472.97;3613122;22;20126;-66
2021/04/12 03:20:55;;;;;;;17.10;13.65;;;;;;;4.47;71.89;99485.25;3579386;40;20332;-66
2021/04/12 03:23:40;;;;;;;16.40;12.68;;;;;;;4.42;71.86;99490.06;3578522;40;20055;-66
2021/04/12 03:26:36;;;;;;;18.40;13.27;;;;;;;4.43;71.67;99493.50;3579624;40;20037;-65
2021/04/12 03:29:19;;;;;;;21.08;14.13;;;;;;;4.40;71.96;99505.06;3579597;40;20080;-66
2021/04/12 03:32:03;;;;;;;18.45;13.35;;;;;;;4.32;71.80;99497.06;3579407;40;20422;-66
2021/04/12 03:34:37;;;;;;;20.00;13.27;;;;;;;4.34;71.98;99502.19;3571010;40;20154;-65
2021/04/12 03:37:20;;;;;;;15.68;12.55;;;;;;;4.42;72.05;99507.56;3579722;40;20055;-65
2021/04/12 03:39:51;;;;;;;16.95;12.35;;;;;;;4.42;71.96;99511.00;3579557;40;20053;-66
2021/04/12 03:42:32;;;;;;;15.02;12.82;;;;;;;4.38;71.65;99512.25;3578261;40;20458;-66
2021/04/12 03:45:11;;;;;;;17.88;12.70;;;;;;;4.34;71.67;99517.91;3579222;40;20041;-65
2021/04/12 03:47:49;;;;;;;17.42;12.88;;;;;;;4.32;71.71;99525.03;3578870;40;20052;-66
2021/04/12 03:50:35;;;;;;;20.10;13.48;;;;;;;4.30;71.56;99527.81;3579414;40;20040;-66
2021/04/12 03:53:32;;;;;;;19.92;12.65;;;;;;;4.35;71.42;99522.97;3579465;40;20410;-65
2021/04/12 03:56:18;;;;;;;18.90;13.95;;;;;;;4.40;71.54;99523.41;3579307;40;20056;-65
2021/04/12 03:59:08;;;;;;;17.95;12.95;;;;;;;4.43;71.57;99527.53;3579429;40;20068;-66
2021/04/12 04:01:46;;;;;;;16.92;13.50;;;;;;;4.37;71.41;99533.34;3579270;40;20044;-65
2021/04/12 04:04:35;;;;;;;16.40;13.15;;;;;;;4.35;71.41;99540.47;3579347;40;20048;-66
2021/04/12 04:07:32;;;;;;;16.05;12.38;;;;;;;4.29;71.60;99541.03;3570816;40;20081;-66
2021/04/12 04:10:44;;;;;;;17.48;12.43;;;;;;;4.33;71.71;99538.00;3579274;40;20085;-66
2021/04/12 04:13:28;;;;;;;14.57;11.23;;;;;;;4.45;71.42;99543.97;3537883;40;20043;-66
2021/04/12 04:16:22;;;;;;;16.50;13.13;;;;;;;4.51;71.28;99539.97;3537409;40;20058;-66
2021/04/12 04:18:58;;;;;;;16.90;13.48;;;;;;;4.57;71.28;99547.25;3569004;40;20048;-66
2021/04/12 04:21:45;;;;;;;15.10;11.38;;;;;;;4.50;70.90;99547.00;3579318;40;20059;-66
2021/04/12 04:24:42;;;;;;;15.13;11.63;;;;;;;4.42;70.73;99552.91;3579227;40;20303;-66
2021/04/12 04:27:43;;;;;;;20.00;12.80;;;;;;;4.37;70.89;99562.13;3578827;40;20053;-66
2021/04/12 04:30:25;;;;;;;15.05;12.23;;;;;;;4.38;70.72;99555.94;3574806;40;20059;-66
2021/04/12 04:33:12;;;;;;;15.43;12.15;;;;;;;4.35;70.75;99562.25;3583836;40;20056;-66
2021/04/12 04:35:57;;;;;;;18.73;12.80;;;;;;;4.34;70.80;99570.25;3579385;40;20052;-66
2021/04/12 04:38:52;;;;;;;17.45;12.85;;;;;;;4.33;70.98;99569.44;3578293;40;20049;-66
2021/04/12 04:42:07;;;;;;;21.67;14.25;;;;;;;4.27;71.20;99569.13;3578171;40;20049;-66
2021/04/12 04:44:51;;;;;;;18.05;13.40;;;;;;;4.29;71.28;99570.66;3557409;40;20050;-66
2021/04/12 04:47:37;;;;;;;25.90;15.48;;;;;;;4.20;70.96;99579.28;3579313;40;20045;-66
2021/04/12 04:50:27;;;;;;;21.63;14.23;;;;;;;4.18;71.35;99586.44;3579486;40;20064;-66
2021/04/12 04:53:13;;;;;;;23.33;14.02;;;;;;;4.22;71.28;99585.22;3579165;40;20052;-66
2021/04/12 04:55:51;;;;;;;20.77;13.02;;;;;;;4.20;71.67;99589.75;3578788;40;20048;-66
2021/04/12 04:58:22;;;;;;;18.90;14.57;;;;;;;4.27;71.60;99592.69;3578150;40;20048;-66
2021/04/12 05:01:14;;;;;;;20.08;13.95;;;;;;;4.29;71.59;99601.25;3579057;40;20337;-66
2021/04/12 05:04:32;;;;;;;20.30;14.85;;;;;;;4.31;71.71;99607.97;3579131;40;20057;-66
2021/04/12 05:07:20;;;;;;;21.05;15.35;;;;;;;4.34;71.75;99605.09;3557328;40;20376;-65
2021/04/12 05:10:06;;;;;;;22.77;14.38;;;;;;;4.45;71.56;99614.66;3557412;40;20048;-65
2021/04/12 05:12:48;;;;;;;20.75;14.73;;;;;;;4.44;71.33;99612.97;3576086;40;20107;-65
2021/04/12 05:15:59;;;;;;;26.45;16.35;;;;;;;4.48;71.38;99622.22;3579312;40;20052;-65
2021/04/12 05:18:45;;;;;;;19.05;13.25;;;;;;;4.45;70.99;99625.13;3578966;40;20053;-65
2021/04/12 05:21:32;;;;;;;21.90;14.45;;;;;;;4.35;70.99;99632.94;3579095;40;20095;-65
2021/04/12 05:24:17;;;;;;;22.10;13.15;;;;;;;4.35;71.08;99626.88;3577966;40;20048;-65
2021/04/12 05:26:57;;;;;;;;;;;;;;;4.38;71.07;99632.66;3579458;40;20044;-65
2021/04/12 05:30:04;;;;;;;23.25;14.48;;;;;;;4.43;70.98;99640.94;3578716;40;19940;-65
2021/04/12 05:32:46;;;;;;;20.60;13.55;;;;;;;4.34;70.89;99659.25;3570456;40;20052;-65
2021/04/12 05:35:34;;;;;;;22.13;15.77;;;;;;;4.38;70.96;99660.66;3579041;40;20052;-64
2021/04/12 05:38:33;;;;;;;18.83;12.57;;;;;;;4.37;70.89;99669.47;3579229;40;20127;-65
2021/04/12 05:41:15;;;;;;;16.23;12.15;;;;;;;4.33;70.71;99674.13;3579206;40;20053;-64
2021/04/12 05:44:11;;;;;;;18.33;11.77;;;;;;;4.31;70.22;99676.03;3579049;40;20396;-65
2021/04/12 05:47:03;;;;;;;19.55;12.68;;;;;;;4.30;70.30;99686.66;3577644;40;20053;-65
2021/04/12 05:49:45;;;;;;;16.27;12.63;;;;;;;4.39;70.31;99680.63;3579065;40;20055;-65
2021/04/12 05:52:47;;;;;;;18.65;13.48;;;;;;;4.47;70.25;99688.63;3579232;40;20058;-65
2021/04/12 05:55:25;;;;;;;18.75;13.80;;;;;;;4.57;70.05;99696.53;3578897;40;20045;-65
2021/04/12 05:58:16;;;;;;;15.95;12.30;;;;;;;4.64;70.06;99700.28;3578554;40;20089;-65
2021/04/12 06:00:53;;;;;;;20.73;13.43;;;;;;;4.72;69.57;99703.88;3578564;40;20052;-65
2021/04/12 06:03:39;;;;;;;19.92;12.82;;;;;;;4.81;69.53;99707.50;3578600;40;20053;-65
2021/04/12 06:06:23;;;;;;;20.77;12.93;;;;;;;4.91;69.52;99710.16;3578822;40;20048;-65
2021/04/12 06:09:14;;;;;;;;;;;;;;;4.84;69.10;99707.22;3579118;40;20049;-66
2021/04/12 06:12:17;;;;;;;15.10;11.68;;;;;;;4.87;69.05;99704.34;3580024;40;19937;-65
2021/04/12 06:15:07;;;;;;;14.98;11.05;;;;;;;4.92;68.89;99707.41;3578874;40;20049;-65
2021/04/12 06:17:46;;;;;;;16.65;11.07;;;;;;;4.92;68.53;99720.50;3580316;40;20308;-65
2021/04/12 06:20:37;;;;;;;13.73;9.80;;;;;;;4.97;68.34;99713.06;3580065;40;20055;-66
2021/04/12 06:23:34;;;;;;;13.90;10.35;;;;;;;4.95;67.70;99717.63;3580310;40;20045;-65
2021/04/12 06:26:18;;;;;;;18.95;10.43;;;;;;;5.05;67.79;99716.81;3578853;40;20434;-67
2021/04/12 06:28:58;;;;;;;16.40;9.95;;;;;;;5.08;67.32;99724.41;3580364;40;20103;-66
2021/04/12 06:31:55;;;;;;;14.52;10.68;;;;;;;5.17;67.54;99727.03;3580226;40;20053;-66
2021/04/12 06:34:54;;;;;;;18.45;10.20;;;;;;;5.28;67.38;99723.47;3580173;40;20025;-65
2021/04/12 06:37:48;;;;;;;12.02;9.77;;;;;;;5.18;67.15;99728.72;3579090;40;20332;-66
2021/04/12 06:40:49;;;;;;;16.40;9.48;;;;;;;5.30;67.08;99728.56;3580410;40;20125;-66
2021/04/12 06:43:46;;;;;;;13.65;8.77;;;;;;;5.25;66.37;99742.09;3581869;40;20053;-66
2021/04/12 06:46:42;;;;;;;11.68;8.30;;;;;;;5.21;66.32;99751.19;3582731;40;20025;-65
2021/04/12 06:49:59;;;;;;;15.30;8.40;;;;;;;5.18;66.36;99756.69;3583536;40;20052;-65
2021/04/12 06:53:07;;;;;;;14.48;7.90;;;;;;;5.21;66.26;99766.91;3582940;40;20048;-66
2021/04/12 06:56:09;;;;;;;8.93;6.93;;;;;;;5.30;66.29;99760.03;3582228;40;20049;-66
2021/04/12 06:59:02;;;;;;;9.65;7.68;;;;;;;5.39;66.10;99765.31;3580239;40;20049;-67
2021/04/12 07:02:00;;;;;;;10.65;7.72;;;;;;;5.42;66.17;99775.50;3580323;40;20061;-67
2021/04/12 07:05:03;;;;;;;13.38;7.80;;;;;;;5.51;66.13;99768.63;3579067;40;20052;-67
2021/04/12 07:07:50;;;;;;;11.02;7.13;;;;;;;5.52;65.69;99769.47;3580319;40;20052;-66
2021/04/12 07:10:51;;;;;;;10.25;7.22;;;;;;;5.56;65.13;99771.66;3582272;40;20045;-65
2021/04/12 07:13:40;;;;;;;15.18;9.18;;;;;;;5.67;65.72;99774.19;3582868;40;20049;-65
2021/04/12 07:16:56;;;;;;;10.80;7.55;;;;;;;5.65;64.99;99781.34;3582029;40;20032;-66
2021/04/12 07:19:56;;;;;;;11.85;7.57;;;;;;;5.45;65.17;99790.16;3561718;40;20143;-66
2021/04/12 07:22:55;;;;;;;8.90;6.65;;;;;;;5.34;65.17;99788.47;3581266;40;20048;-66
2021/04/12 07:26:10;;;;;;;7.78;6.00;;;;;;;5.22;64.68;99784.28;3580207;40;20057;-67
2021/04/12 07:29:20;;;;;;;9.40;6.97;;;;;;;5.22;65.20;99798.25;3580157;40;20044;-66
2021/04/12 07:32:23;;;;;;;10.93;7.28;;;;;;;5.30;65.02;99797.56;3580089;40;20061;-66
2021/04/12 07:35:19;;;;;;;12.20;7.20;;;;;;;5.31;64.63;99799.25;3580225;40;20311;-65
2021/04/12 07:38:12;;;;;;;8.15;6.20;;;;;;;5.28;64.25;99799.50;3580204;40;20049;-66
2021/04/12 07:41:06;;;;;;;8.23;6.22;;;;;;;5.32;64.30;99808.75;3579807;40;20055;-66
2021/04/12 07:44:07;;;;;;;5.55;4.65;;;;;;;5.46;63.63;99812.78;3580901;40;20052;-66
2021/04/12 07:47:07;;;;;;;8.27;5.93;;;;;;;5.43;63.31;99816.53;3582262;40;20029;-66
2021/04/12 07:50:28;;;;;;;10.35;6.53;;;;;;;5.46;62.74;99821.47;3582487;40;20053;-66
2021/04/12 07:53:40;;;;;;;10.05;5.80;;;;;;;5.45;62.70;99824.25;3547911;40;20053;-66
2021/04/12 07:56:38;;;;;;;8.02;5.88;;;;;;;5.53;62.82;99821.78;3551036;40;20042;-66
2021/04/12 07:59:47;;;;;;;10.98;6.07;;;;;;;5.75;62.27;99828.56;3559848;40;20398;-66
2021/04/12 08:02:50;;;;;;;8.73;6.28;;;;;;;6.05;62.24;99832.91;3579850;40;20048;-66
2021/04/12 08:05:40;;;;;;;8.63;5.88;;;;;;;6.12;61.01;99830.53;3580240;40;20063;-66
2021/04/12 08:08:32;;;;;;;6.35;5.15;;;;;;;6.26;60.84;99832.75;3580315;40;20324;-66
2021/04/12 08:11:38;;;;;;;7.82;6.05;;;;;;;6.43;60.40;99837.28;3580040;40;20044;-67
2021/04/12 08:14:56;;;;;;;10.45;5.82;;;;;;;6.38;59.00;99836.88;3579902;40;20048;-66
2021/04/12 08:18:03;;;;;;;8.38;4.15;;;;;;;6.58;57.95;99842.13;3579680;40;20033;-66
2021/04/12 08:20:43;;;;;;;8.13;5.18;;;;;;;6.43;57.88;99841.72;3578549;40;20048;-66
2021/04/12 08:23:50;;;;;;;9.20;4.50;;;;;;;6.27;58.31;99846.72;3579917;40;20029;-66
2021/04/12 08:26:50;;;;;;;8.50;4.80;;;;;;;6.34;58.33;99861.78;3579516;40;20324;-66
2021/04/12 08:29:47;;;;;;;6.95;4.63;;;;;;;6.45;57.95;99866.06;3580380;40;20112;-66
2021/04/12 08:32:49;;;;;;;6.65;3.85;;;;;;;6.32;57.43;99863.69;3579577;40;20060;-66
2021/04/12 08:35:54;;;;;;;7.82;4.72;;;;;;;6.36;57.53;99870.31;3578420;40;20049;-66
2021/04/12 08:39:07;;;;;;;9.10;4.40;;;;;;;6.28;56.24;99864.94;3580081;40;20055;-66
2021/04/12 08:42:22;;;;;;;14.18;5.15;;;;;;;5.86;55.84;99867.81;3569870;40;20060;-66
2021/04/12 08:45:14;;;;;;;5.57;3.40;;;;;;;6.08;56.40;99879.03;3579355;40;20055;-66
2021/04/12 08:48:12;;;;;;;7.88;3.28;;;;;;;6.32;55.18;99871.56;3578111;40;20332;-66
2021/04/12 08:51:03;;;;;;;6.32;3.22;;;;;;;6.51;55.12;99877.78;3578489;40;20041;-66
2021/04/12 08:53:52;;;;;;;4.40;2.72;;;;;;;6.72;54.41;99875.00;3569284;40;20052;-66
2021/04/12 08:56:38;;;;;;;6.20;3.08;;;;;;;6.83;53.67;99875.66;3579575;40;20077;-66
2021/04/12 08:59:51;;;;;;;5.90;2.67;;;;;;;6.89;53.56;99875.06;3580064;40;20048;-65
2021/04/12 09:02:56;;;;;;;4.28;3.08;;;;;;;7.17;53.63;99880.38;3579040;40;20419;-66
2021/04/12 09:05:54;;;;;;;6.90;2.92;;;;;;;6.78;52.21;99877.88;3578787;40;20053;-66
2021/04/12 09:08:44;;;;;;;7.03;3.97;;;;;;;6.90;52.12;99876.75;3578040;40;20041;-66
2021/04/12 09:11:50;;;;;;;3.67;2.10;;;;;;;7.01;51.54;99878.34;3579237;40;20052;-66
2021/04/12 09:14:55;;;;;;;7.30;2.47;;;;;;;7.20;50.87;99877.47;3578716;40;20438;-66
2021/04/12 09:17:47;;;;;;;5.32;2.97;;;;;;;7.53;50.74;99880.50;3578849;40;20041;-66
2021/04/12 09:20:46;;;;;;;4.15;2.70;;;;;;;7.42;50.33;99884.97;3578663;40;20045;-67
2021/04/12 09:23:41;;;;;;;5.28;2.75;;;;;;;7.48;49.88;99882.75;3578989;40;20412;-66
2021/04/12 09:26:44;;;;;;;3.50;2.55;;;;;;;7.37;50.67;99878.50;3578619;40;20045;-66
2021/04/12 09:29:35;;;;;;;7.03;2.58;;;;;;;7.56;50.95;99885.50;3578945;40;20088;-66
2021/04/12 09:32:41;;;;;;;4.70;3.10;;;;;;;7.59;49.66;99887.81;3578781;40;20060;-66
2021/04/12 09:35:25;;;;;;;4.65;2.70;;;;;;;7.67;49.62;99888.75;3577085;40;20412;-66
2021/04/12 09:38:31;;;;;;;6.95;3.10;;;;;;;7.74;49.37;99882.88;3578662;40;20045;-66
2021/04/12 09:41:33;;;;;;;4.38;2.30;;;;;;;7.62;49.44;99892.78;3569480;40;20419;-66
2021/04/12 09:44:28;;;;;;;6.05;2.60;;;;;;;7.64;49.56;99890.84;3578787;40;20093;-66
2021/04/12 09:47:22;;;;;;;6.00;2.40;;;;;;;7.53;49.18;99894.50;3580204;40;20052;-66
2021/04/12 09:50:23;;;;;;;3.40;2.00;;;;;;;7.38;48.78;99888.88;3580235;40;20390;-66
2021/04/12 09:53:06;;;;;;;2.85;1.77;;;;;;;7.59;48.87;99886.03;3580394;40;20045;-66
2021/04/12 09:56:11;;;;;;;3.65;2.08;;;;;;;7.97;48.08;99881.50;3580059;40;20048;-67
2021/04/12 09:59:08;;;;;;;2.90;1.50;;;;;;;8.13;46.97;99876.38;3579315;40;20328;-66
2021/04/12 10:02:04;;;;;;;6.85;2.83;;;;;;;7.88;44.44;99880.59;3580107;40;20056;-66
2021/04/12 10:04:53;;;;;;;5.40;2.00;;;;;;;7.63;45.88;99881.25;3580038;40;20049;-66
2021/04/12 10:07:43;;;;;;;2.40;1.40;;;;;;;7.89;46.47;99882.22;3579161;40;20056;-66
2021/04/12 10:10:17;;;;;;;3.90;1.70;;;;;;;8.10;46.25;99874.03;3580156;40;20049;-66
2021/04/12 10:13:03;;;;;;;4.75;2.08;;;;;;;7.90;43.68;99881.25;3580330;40;20049;-66
2021/04/12 10:15:43;;;;;;;2.17;1.50;;;;;;;7.62;44.87;99890.16;3582326;40;20423;-66
2021/04/12 10:18:22;;;;;;;2.40;1.30;;;;;;;7.69;45.30;99888.59;3584923;40;20033;-66
2021/04/12 10:20:53;;;;;;;1.70;1.40;;;;;;;7.72;45.28;99890.13;3584670;40;20048;-67
2021/04/12 10:23:23;;;;;;;2.45;1.38;;;;;;;7.73;44.86;99884.69;3583523;40;20053;-66
2021/04/12 10:26:01;;;;;;;3.08;1.67;;;;;;;7.88;44.65;99882.38;3584451;40;20048;-66
2021/04/12 10:28:31;;;;;;;4.65;1.45;;;;;;;7.98;45.52;99883.13;3581505;40;20048;-66
2021/04/12 10:31:07;;;;;;;3.60;2.50;;;;;;;7.91;44.58;99885.53;3579112;40;20085;-66
2021/04/12 10:33:44;;;;;;;2.22;1.10;;;;;;;7.81;44.51;99882.16;3580369;40;20435;-66
2021/04/12 10:36:21;;;;;;;6.70;4.20;;;;;;;7.92;44.50;99876.66;3580035;40;20047;-66
2021/04/12 10:38:57;;;;;;;5.45;2.83;;;;;;;8.22;44.36;99884.34;3580355;40;20305;-66
2021/04/12 10:41:29;;;;;;;5.88;2.22;;;;;;;8.30;43.67;99874.72;3579971;40;20056;-67
2021/04/12 10:44:11;;;;;;;;;;;;;;;8.33;44.09;99871.78;3580815;40;20079;-66
2021/04/12 10:46:51;;;;;;;5.35;1.30;;;;;;;8.36;43.04;99875.91;3580301;40;19933;-66
2021/04/12 10:49:25;;;;;;;4.55;2.13;;;;;;;8.27;42.75;99872.38;3582992;40;20045;-67
2021/04/12 10:51:57;;;;;;;13.40;6.60;;;;;;;8.25;42.34;99868.25;3584701;40;20353;-66
2021/04/12 10:54:40;;;;;;;7.28;3.15;;;;;;;8.25;42.30;99871.72;3584253;40;20425;-66
2021/04/12 10:57:18;;;;;;;4.23;2.43;;;;;;;8.19;42.08;99875.75;3583636;40;20038;-66
2021/04/12 11:00:00;;;;;;;9.10;4.25;;;;;;;8.13;41.96;99879.00;3580202;40;20041;-66
2021/04/12 11:02:46;;;;;;;5.45;2.72;;;;;;;8.44;42.00;99873.38;3580226;40;20061;-67
2021/04/12 11:05:19;;;;;;;2.05;1.85;;;;;;;8.43;42.05;99869.91;3579109;40;20049;-67
2021/04/12 11:07:52;;;;;;;2.88;1.67;;;;;;;8.38;41.89;99866.91;3580151;40;20312;-66
2021/04/12 11:10:30;;;;;;;;;;;;;;;8.36;41.85;99868.00;3580427;40;20505;-66
2021/04/12 11:13:02;;;;;;;5.15;2.38;;;;;;;8.40;42.07;99869.38;3579982;40;19940;-67
2021/04/12 11:15:41;;;;;;;5.00;2.80;;;;;;;8.42;41.47;99875.34;3579614;40;20378;-67
2021/04/12 11:18:20;;;;;;;2.40;1.70;;;;;;;8.25;41.51;99871.72;3579480;40;20045;-66
2021/04/12 11:20:55;;;;;;;2.88;1.65;;;;;;;8.35;41.27;99877.72;3579883;40;20107;-66
2021/04/12 11:23:29;;;;;;;3.78;1.98;;;;;;;8.41;41.26;99871.88;3579679;40;20060;-66
2021/04/12 11:26:02;;;;;;;4.68;1.98;;;;;;;8.55;41.31;99867.03;3579389;40;20332;-66
2021/04/12 11:28:44;;;;;;;4.65;1.98;;;;;;;8.45;40.60;99861.88;3579860;40;20093;-66
2021/04/12 11:31:42;;;;;;;3.92;2.13;;;;;;;8.38;40.58;99863.44;3579804;40;20437;-66
2021/04/12 11:34:19;;;;;;;3.35;1.52;;;;;;;8.41;40.53;99871.88;3579453;40;20100;-66
2021/04/12 11:36:55;;;;;;;3.83;1.77;;;;;;;8.67;40.77;99865.81;3579506;40;20044;-66
2021/04/12 11:39:26;;;;;;;3.30;2.15;;;;;;;8.98;40.10;99862.69;3579792;40;20045;-66
2021/04/12 11:41:58;;;;;;;1.95;1.58;;;;;;;9.10;39.12;99864.91;3578604;40;20049;-66
2021/04/12 11:44:32;;;;;;;8.30;3.15;;;;;;;9.24;39.17;99860.03;3579652;40;20055;-66
2021/04/12 11:47:22;;;;;;;1.93;1.70;;;;;;;9.52;38.81;99861.47;3579713;40;20049;-66
2021/04/12 11:50:15;;;;;;;1.77;1.67;;;;;;;9.63;39.08;99857.69;3578554;40;20110;-66
2021/04/12 11:52:52;;;;;;;1.90;1.70;;;;;;;9.57;37.92;99864.44;3579857;40;20119;-66
2021/04/12 11:55:28;;;;;;;2.03;1.65;;;;;;;9.33;38.12;99865.19;3579620;40;20060;-66
2021/04/12 11:58:01;;;;;;;2.85;1.90;;;;;;;9.09;38.19;99859.78;3579252;40;20107;-66
2021/04/12 12:00:33;;;;;;;2.33;1.70;;;;;;;8.85;38.46;99865.75;3579944;40;20041;-67
2021/04/12 12:03:27;;;;;;;2.33;1.60;;;;;;;8.76;39.37;99866.69;3580213;40;20101;-67
2021/04/12 12:06:06;;;;;;;2.15;1.90;;;;;;;8.85;39.58;99871.03;3579664;40;20068;-67
2021/04/12 12:08:45;;;;;;;2.17;1.90;;;;;;;8.69;39.37;99869.09;3579750;40;20308;-67
2021/04/12 12:11:21;;;;;;;4.10;2.53;;;;;;;8.68;39.16;99870.91;3579979;40;20048;-67
2021/04/12 12:13:54;;;;;;;3.65;2.40;;;;;;;8.43;39.22;99864.63;3580094;40;20415;-65
2021/04/12 12:16:29;;;;;;;1.88;1.77;;;;;;;8.40;39.34;99870.19;3579897;40;20384;-67
2021/04/12 12:19:02;;;;;;;2.13;1.95;;;;;;;8.46;39.20;99881.97;3580002;40;20089;-66
2021/04/12 12:21:34;;;;;;;1.90;1.60;;;;;;;8.47;39.00;99874.88;3580124;40;20049;-66
2021/04/12 12:24:14;;;;;;;1.65;1.48;;;;;;;8.75;37.53;99875.59;3580300;40;20044;-67
2021/04/12 12:26:50;;;;;;;2.08;1.58;;;;;;;8.63;37.48;99872.38;3579496;40;20095;-66
2021/04/12 12:29:21;;;;;;;7.07;2.60;;;;;;;8.93;37.08;99878.97;3580791;40;20052;-67
2021/04/12 12:32:19;;;;;;;5.10;1.90;;;;;;;9.32;36.67;99873.25;3584899;40;20040;-66
2021/04/12 12:35:03;;;;;;;2.08;1.70;;;;;;;9.69;36.59;99875.53;3586408;40;20044;-66
2021/04/12 12:37:43;;;;;;;3.47;1.88;;;;;;;9.76;36.58;99860.72;3586838;40;20048;-66
2021/04/12 12:40:15;;;;;;;2.67;1.80;;;;;;;9.70;36.35;99868.44;3586699;40;20056;-66
2021/04/12 12:42:46;;;;;;;1.75;1.58;;;;;;;9.79;36.37;99859.53;3586808;40;20059;-66
2021/04/12 12:45:16;;;;;;;2.80;2.45;;;;;;;10.23;35.64;99860.09;3586962;40;20048;-66
2021/04/12 12:47:47;;;;;;;2.17;1.45;;;;;;;10.34;34.93;99857.19;3586429;40;20060;-65
2021/04/12 12:50:21;;;;;;;2.55;1.50;;;;;;;10.76;34.96;99852.69;3584937;40;20052;-65
2021/04/12 12:52:54;;;;;;;4.25;1.38;;;;;;;11.04;34.56;99848.66;3584650;40;20139;-65
2021/04/12 12:55:27;;;;;;;2.15;1.77;;;;;;;11.01;33.60;99848.97;3579493;40;20064;-65
2021/04/12 12:57:56;;;;;;;1.60;1.50;;;;;;;10.69;32.74;99857.78;3579326;40;20416;-67
2021/04/12 13:00:36;;;;;;;2.38;1.58;;;;;;;10.77;32.29;99859.59;3579157;40;20093;-66
2021/04/12 13:03:16;;;;;;;1.88;1.65;;;;;;;10.87;31.73;99853.16;3578868;40;20063;-66
2021/04/12 13:05:44;;;;;;;2.17;1.50;;;;;;;11.14;31.67;99845.78;3578829;40;20041;-66
2021/04/12 13:08:15;;;;;;;2.88;1.33;;;;;;;11.09;30.97;99856.06;3579056;40;20048;-66